Time;durP1;ratioP1;P1;durP2;ratioP2;P2;SDS_P1;SDS_P2;PMS_P1;PMS_P2;Temp;Humidity;BMP_temperature;BMP_pressure;BME280_temperature;BME280_humidity;BME280_pressure;Samples;Min_cycle;Max_cycle;Signal;HPM_P1;HPM_P2
2021/08/10 00:00:01;;;;;;;6.25;3.25;;;;;;;17.22;73.86;96620.38;5072887;28;20131;-72
2021/08/10 00:02:27;;;;;;;4.93;3.20;;;;;;;17.20;74.03;96623.50;5072820;28;20051;-72
2021/08/10 00:04:55;;;;;;;5.18;2.92;;;;;;;17.19;73.50;96615.59;5072386;28;20044;-72
2021/08/10 00:07:22;;;;;;;3.55;2.80;;;;;;;17.22;72.85;96615.69;5071047;28;20048;-72
2021/08/10 00:09:48;;;;;;;7.22;2.85;;;;;;;17.20;73.44;96617.19;5072944;28;20052;-72
2021/08/10 00:12:15;;;;;;;6.82;3.20;;;;;;;17.24;73.67;96622.81;5072343;28;20110;-72
2021/08/10 00:14:41;;;;;;;5.18;2.75;;;;;;;17.23;73.14;96616.50;5072395;28;20045;-72
2021/08/10 00:17:08;;;;;;;4.00;2.95;;;;;;;17.12;73.20;96621.72;5072256;28;20052;-71
2021/08/10 00:19:34;;;;;;;6.32;3.15;;;;;;;17.08;73.71;96620.03;5072739;28;20049;-71
2021/08/10 00:22:02;;;;;;;4.72;3.17;;;;;;;16.98;73.96;96615.84;5072598;28;20049;-71
2021/08/10 00:24:29;;;;;;;6.25;3.15;;;;;;;16.90;74.29;96619.56;5072289;28;20040;-72
2021/08/10 00:26:55;;;;;;;5.45;3.00;;;;;;;16.90;74.45;96620.34;5072442;28;20051;-72
2021/08/10 00:29:22;;;;;;;4.90;3.35;;;;;;;16.82;74.37;96629.56;5071614;28;20048;-72
2021/08/10 00:31:48;;;;;;;4.70;3.03;;;;;;;16.78;74.52;96620.44;5072395;28;20625;-72
2021/08/10 00:34:15;;;;;;;5.25;3.08;;;;;;;16.72;74.34;96619.09;5071855;28;20068;-72
2021/08/10 00:36:41;;;;;;;5.93;3.25;;;;;;;16.68;74.59;96616.19;5071869;28;20047;-72
2021/08/10 00:39:09;;;;;;;7.43;3.28;;;;;;;16.66;75.15;96609.47;5071865;28;20040;-71
2021/08/10 00:41:36;;;;;;;7.00;3.25;;;;;;;16.66;75.26;96609.47;5072180;28;20059;-71
2021/08/10 00:44:02;;;;;;;5.57;3.25;;;;;;;16.62;75.24;96609.34;5071771;28;20045;-71
2021/08/10 00:46:29;;;;;;;4.55;3.05;;;;;;;16.62;75.26;96608.56;5072263;28;20051;-71
2021/08/10 00:48:55;;;;;;;6.88;3.05;;;;;;;16.56;75.20;96604.47;5072017;28;20045;-71
2021/08/10 00:51:22;;;;;;;4.95;3.08;;;;;;;16.50;75.12;96609.41;5071600;28;20062;-72
2021/08/10 00:53:49;;;;;;;5.60;3.20;;;;;;;16.47;75.26;96610.09;5071994;28;20049;-72
2021/08/10 00:56:17;;;;;;;5.25;2.80;;;;;;;16.47;75.25;96612.06;5071259;28;20044;-72
2021/08/10 00:58:43;;;;;;;8.25;4.65;;;;;;;16.42;75.18;96605.66;5071831;28;20510;-72
2021/08/10 01:01:10;;;;;;;5.38;3.25;;;;;;;16.38;75.46;96603.94;5071429;28;20040;-72
2021/08/10 01:03:36;;;;;;;6.13;3.17;;;;;;;16.34;75.43;96608.53;5053898;28;20060;-72
2021/08/10 01:06:08;;;;;;;4.68;2.92;;;;;;;16.32;75.53;96608.09;5070883;28;20056;-72
2021/08/10 01:08:49;;;;;;;5.40;3.28;;;;;;;16.33;76.11;96606.94;5071873;28;20053;-71
2021/08/10 01:11:27;;;;;;;5.00;3.13;;;;;;;16.33;76.24;96607.75;5071335;28;20090;-72
2021/08/10 01:13:58;;;;;;;4.80;3.08;;;;;;;16.31;75.60;96610.06;5071686;28;20048;-72
2021/08/10 01:16:31;;;;;;;3.55;2.90;;;;;;;16.32;75.84;96603.41;5071096;28;20641;-72
2021/08/10 01:19:05;;;;;;;4.32;2.95;;;;;;;16.31;75.72;96598.25;5071532;28;20060;-71
2021/08/10 01:21:37;;;;;;;4.72;3.03;;;;;;;16.29;75.58;96593.13;5071096;28;20051;-71
2021/08/10 01:24:08;;;;;;;4.45;2.90;;;;;;;16.26;75.09;96602.06;5071053;28;20048;-72
2021/08/10 01:27:10;;;;;;;3.90;2.70;;;;;;;16.16;75.26;96600.59;5070508;28;20418;-71
2021/08/10 01:29:40;;;;;;;6.13;2.97;;;;;;;16.11;75.62;96595.34;5071222;28;20471;-71
2021/08/10 01:32:08;;;;;;;8.48;3.00;;;;;;;16.11;76.27;96594.53;5070642;28;20063;-72
2021/08/10 01:34:39;;;;;;;6.57;3.45;;;;;;;16.08;76.45;96589.75;5053490;28;20049;-71
2021/08/10 01:37:09;;;;;;;6.88;3.30;;;;;;;16.10;76.69;96598.44;5052182;28;20518;-72
2021/08/10 01:39:37;;;;;;;5.05;2.90;;;;;;;16.06;76.45;96592.03;5071038;28;20055;-71
2021/08/10 01:42:05;;;;;;;4.00;2.85;;;;;;;16.08;76.57;96600.75;5070668;28;20036;-72
2021/08/10 01:44:34;;;;;;;5.05;3.13;;;;;;;16.07;76.65;96599.13;5070892;28;20414;-72
2021/08/10 01:47:02;;;;;;;5.35;3.28;;;;;;;16.09;76.56;96591.34;5071098;28;20408;-72
2021/08/10 01:49:32;;;;;;;5.03;2.90;;;;;;;16.08;76.41;96598.00;5070844;28;20048;-72
2021/08/10 01:52:00;;;;;;;4.55;3.08;;;;;;;16.05;76.29;96587.69;5071062;28;20056;-71
2021/08/10 01:54:27;;;;;;;6.82;3.17;;;;;;;16.04;76.36;96580.59;5070383;28;20048;-72
2021/08/10 01:56:54;;;;;;;5.57;3.45;;;;;;;16.01;76.37;96573.03;5070985;28;20048;-71
2021/08/10 01:59:21;;;;;;;3.80;3.05;;;;;;;16.01;76.98;96578.53;5070240;28;20056;-73
2021/08/10 02:01:49;;;;;;;5.40;3.22;;;;;;;16.01;76.59;96578.53;5070971;28;20044;-71
2021/08/10 02:04:19;;;;;;;4.32;3.00;;;;;;;15.90;76.24;96570.78;5052206;28;20472;-71
2021/08/10 02:06:48;;;;;;;7.15;3.65;;;;;;;15.88;76.55;96575.84;5070226;28;20044;-71
2021/08/10 02:09:18;;;;;;;4.70;3.08;;;;;;;15.84;76.34;96574.91;5070303;28;20045;-71
2021/08/10 02:11:45;;;;;;;5.00;3.28;;;;;;;15.80;76.41;96573.22;5070855;28;20044;-71
2021/08/10 02:14:13;;;;;;;6.30;3.50;;;;;;;15.81;76.51;96586.59;5070225;28;20056;-71
2021/08/10 02:16:40;;;;;;;5.72;3.50;;;;;;;15.77;76.61;96577.47;5070741;28;20060;-71
2021/08/10 02:19:08;;;;;;;5.15;3.25;;;;;;;15.78;76.82;96573.56;5070176;28;20438;-71
2021/08/10 02:21:39;;;;;;;5.78;3.45;;;;;;;15.84;77.12;96571.38;5070690;28;20044;-71
2021/08/10 02:24:09;;;;;;;7.60;3.30;;;;;;;15.80;76.59;96565.78;5070187;28;20402;-71
2021/08/10 02:26:43;;;;;;;6.65;3.67;;;;;;;15.78;76.72;96573.56;5070670;28;20055;-71
2021/08/10 02:29:11;;;;;;;6.30;3.35;;;;;;;15.75;76.64;96566.00;5070154;28;20411;-71
2021/08/10 02:31:38;;;;;;;5.25;3.38;;;;;;;15.74;76.67;96567.16;5070479;28;20049;-71
2021/08/10 02:34:04;;;;;;;5.15;3.58;;;;;;;15.70;76.95;96574.47;5070129;28;20048;-71
2021/08/10 02:36:33;;;;;;;5.85;4.07;;;;;;;15.70;77.10;96568.19;5069978;28;20048;-71
2021/08/10 02:39:05;;;;;;;4.63;3.45;;;;;;;15.70;77.12;96568.19;5073466;28;20052;-71
2021/08/10 02:41:35;;;;;;;5.47;3.50;;;;;;;15.71;77.65;96556.84;5074446;28;20044;-71
2021/08/10 02:44:02;;;;;;;5.65;3.20;;;;;;;15.74;77.42;96558.94;5074484;28;20048;-71
2021/08/10 02:46:29;;;;;;;5.47;3.08;;;;;;;15.73;77.37;96551.03;5073992;28;20451;-71
2021/08/10 02:48:56;;;;;;;8.65;3.50;;;;;;;15.72;77.37;96550.25;5074331;28;20051;-72
2021/08/10 02:51:22;;;;;;;4.70;3.50;;;;;;;15.67;77.27;96553.22;5073971;28;20056;-71
2021/08/10 02:53:49;;;;;;;5.50;3.53;;;;;;;15.67;77.20;96550.47;5074287;28;20056;-71
2021/08/10 02:56:20;;;;;;;4.93;3.58;;;;;;;15.64;77.28;96557.44;5073522;28;20055;-71
2021/08/10 02:58:54;;;;;;;5.60;3.03;;;;;;;15.63;77.51;96546.81;5074124;28;20044;-71
2021/08/10 03:01:24;;;;;;;7.10;3.63;;;;;;;15.61;77.74;96551.84;5073672;28;20051;-71
2021/08/10 03:03:54;;;;;;;5.78;3.72;;;;;;;15.58;77.75;96552.53;5073927;28;20055;-71
2021/08/10 03:06:21;;;;;;;7.63;3.30;;;;;;;15.54;77.64;96543.38;5072962;28;20055;-71
2021/08/10 03:08:55;;;;;;;6.43;3.47;;;;;;;15.51;77.92;96549.56;5073993;28;20055;-71
2021/08/10 03:11:22;;;;;;;5.65;3.47;;;;;;;15.49;77.94;96546.34;5073406;28;20055;-71
2021/08/10 03:13:52;;;;;;;5.82;3.10;;;;;;;15.47;77.96;96552.19;5073978;28;20057;-71
2021/08/10 03:16:20;;;;;;;5.35;3.60;;;;;;;15.45;78.02;96548.19;5073388;28;20048;-72
2021/08/10 03:18:51;;;;;;;6.38;3.88;;;;;;;15.45;78.00;96556.41;5073722;28;20041;-72
2021/08/10 03:21:20;;;;;;;7.22;3.72;;;;;;;15.47;78.48;96543.16;5073244;28;20047;-72
2021/08/10 03:23:49;;;;;;;5.53;3.50;;;;;;;15.49;78.65;96540.84;5073633;28;20384;-72
2021/08/10 03:26:16;;;;;;;6.28;3.78;;;;;;;15.49;78.45;96546.34;5073062;28;20054;-72
2021/08/10 03:28:44;;;;;;;5.40;3.38;;;;;;;15.48;78.51;96540.06;5073554;28;20056;-72
2021/08/10 03:31:13;;;;;;;6.70;3.63;;;;;;;15.43;77.86;96543.03;5072919;28;20051;-71
2021/08/10 03:33:41;;;;;;;6.45;3.60;;;;;;;15.42;77.97;96543.41;5073525;28;20530;-71
2021/08/10 03:36:08;;;;;;;5.55;3.50;;;;;;;15.40;78.08;96546.50;5072425;28;20044;-71
2021/08/10 03:38:37;;;;;;;6.82;4.00;;;;;;;15.37;78.36;96545.22;5073363;28;20051;-72
2021/08/10 03:41:05;;;;;;;7.20;3.53;;;;;;;15.39;78.60;96547.63;5073324;28;20049;-71
2021/08/10 03:43:33;;;;;;;3.88;3.10;;;;;;;15.45;78.49;96550.91;5072988;28;20041;-72
2021/08/10 03:46:00;;;;;;;5.80;3.67;;;;;;;15.45;78.27;96550.91;5073500;28;20048;-72
2021/08/10 03:48:34;;;;;;;4.80;3.47;;;;;;;15.46;78.41;96552.53;5073016;28;20037;-72
2021/08/10 03:51:01;;;;;;;6.22;4.15;;;;;;;15.46;78.13;96552.53;5072572;28;20403;-71
2021/08/10 03:53:29;;;;;;;6.30;3.78;;;;;;;15.48;77.90;96551.03;5072898;28;20040;-72
2021/08/10 03:55:55;;;;;;;7.47;3.63;;;;;;;15.48;77.70;96550.25;5073129;28;20051;-72
2021/08/10 03:58:23;;;;;;;5.50;3.70;;;;;;;15.48;77.72;96547.50;5072483;28;20055;-72
2021/08/10 04:00:53;;;;;;;6.88;3.85;;;;;;;15.40;77.79;96550.03;5073137;28;20064;-71
2021/08/10 04:03:20;;;;;;;4.88;3.85;;;;;;;15.37;77.93;96550.72;5072228;28;20096;-72
2021/08/10 04:05:50;;;;;;;6.05;3.92;;;;;;;15.35;78.06;96552.22;5072243;28;20048;-71
2021/08/10 04:08:17;;;;;;;4.88;3.45;;;;;;;15.35;78.27;96558.50;5072422;28;20523;-72
2021/08/10 04:10:46;;;;;;;7.95;4.18;;;;;;;15.34;78.28;96556.88;5072814;28;20048;-71
2021/08/10 04:13:12;;;;;;;6.75;3.83;;;;;;;15.34;78.27;96556.06;5072355;28;20388;-72
2021/08/10 04:15:42;;;;;;;6.60;3.63;;;;;;;15.37;78.38;96547.97;5072974;28;20048;-72
2021/08/10 04:18:11;;;;;;;4.40;3.25;;;;;;;15.41;77.97;96548.09;5072088;28;20045;-71
2021/08/10 04:20:38;;;;;;;5.38;3.42;;;;;;;15.39;77.88;96544.88;5072513;28;20117;-71
2021/08/10 04:23:07;;;;;;;5.80;3.22;;;;;;;15.38;78.02;96541.31;5054304;28;20055;-71
2021/08/10 04:25:33;;;;;;;5.55;3.45;;;;;;;15.41;78.32;96539.84;5072711;28;20048;-71
2021/08/10 04:28:00;;;;;;;8.23;3.80;;;;;;;15.49;77.88;96535.38;5072612;28;20051;-71
2021/08/10 04:30:26;;;;;;;4.57;3.55;;;;;;;15.52;77.35;96540.19;5072104;28;20048;-71
2021/08/10 04:32:53;;;;;;;5.57;3.03;;;;;;;15.53;77.04;96539.81;5072439;28;20040;-71
2021/08/10 04:35:20;;;;;;;8.02;3.53;;;;;;;15.56;77.10;96538.34;5071373;28;20044;-72
2021/08/10 04:37:46;;;;;;;5.30;3.42;;;;;;;15.59;77.07;96529.41;5072358;28;20049;-71
2021/08/10 04:40:14;;;;;;;5.38;3.38;;;;;;;15.59;77.04;96534.91;5071689;28;20048;-72
2021/08/10 04:42:41;;;;;;;8.90;3.63;;;;;;;15.58;77.80;96533.31;5072266;28;20051;-71
2021/08/10 04:45:08;;;;;;;5.05;3.80;;;;;;;15.56;78.01;96530.13;5071391;28;20052;-71
2021/08/10 04:47:35;;;;;;;5.35;3.08;;;;;;;15.59;78.31;96541.19;5072343;28;20045;-72
2021/08/10 04:50:01;;;;;;;6.00;3.50;;;;;;;15.65;78.33;96528.06;5072117;28;20051;-72
2021/08/10 04:52:28;;;;;;;5.70;3.88;;;;;;;15.68;77.82;96527.38;5071813;28;20043;-72
2021/08/10 04:54:56;;;;;;;4.43;3.30;;;;;;;15.72;77.56;96532.97;5071977;28;20075;-71
2021/08/10 04:57:24;;;;;;;4.20;3.22;;;;;;;15.70;77.81;96536.06;5071430;28;20621;-71
2021/08/10 04:59:51;;;;;;;6.43;3.30;;;;;;;15.75;76.98;96532.28;5071824;28;20052;-72
2021/08/10 05:02:17;;;;;;;5.10;3.20;;;;;;;15.76;77.31;96540.16;5071296;28;20503;-72
2021/08/10 05:04:44;;;;;;;7.80;3.83;;;;;;;15.76;77.82;96531.91;5071592;28;20086;-71
2021/08/10 05:07:10;;;;;;;4.55;3.33;;;;;;;15.78;78.01;96526.88;5070801;28;20169;-71
2021/08/10 05:09:37;;;;;;;6.53;3.55;;;;;;;15.80;77.89;96527.34;5054049;28;20048;-71
2021/08/10 05:12:05;;;;;;;8.10;3.28;;;;;;;15.87;77.89;96524.03;5071187;28;20436;-71
2021/08/10 05:14:33;;;;;;;5.47;3.40;;;;;;;15.94;77.29;96523.41;5071364;28;20040;-71
2021/08/10 05:16:59;;;;;;;4.65;3.15;;;;;;;15.97;77.15;96533.69;5071782;28;20051;-72
2021/08/10 05:19:26;;;;;;;7.25;3.17;;;;;;;15.95;77.25;96530.50;5070968;28;20040;-71
2021/08/10 05:21:52;;;;;;;5.35;3.00;;;;;;;16.00;77.55;96544.78;5071563;28;20052;-71
2021/08/10 05:24:19;;;;;;;5.53;3.13;;;;;;;16.07;77.53;96538.69;5070977;28;20052;-71
2021/08/10 05:26:45;;;;;;;5.35;3.42;;;;;;;16.13;77.27;96548.28;5071426;28;20048;-71
2021/08/10 05:29:12;;;;;;;4.45;3.15;;;;;;;16.12;77.58;96549.44;5070927;28;20041;-73
2021/08/10 05:31:40;;;;;;;4.93;3.05;;;;;;;16.16;77.83;96548.38;5071300;28;20044;-71
2021/08/10 05:34:07;;;;;;;5.18;3.30;;;;;;;16.20;78.61;96540.25;5070842;28;20048;-71
2021/08/10 05:36:33;;;;;;;6.70;3.63;;;;;;;16.23;78.95;96542.28;5052843;28;20517;-71
2021/08/10 05:39:00;;;;;;;4.50;3.50;;;;;;;16.31;78.97;96533.09;5071124;28;20510;-71
2021/08/10 05:41:26;;;;;;;5.63;3.78;;;;;;;16.41;77.68;96529.84;5070497;28;20040;-71
2021/08/10 05:43:52;;;;;;;5.38;3.65;;;;;;;16.49;76.89;96535.53;5070951;28;20642;-71
2021/08/10 05:46:19;;;;;;;5.50;3.45;;;;;;;16.52;76.24;96534.84;5070719;28;20049;-71
2021/08/10 05:48:47;;;;;;;5.72;3.28;;;;;;;16.56;76.47;96533.78;5071189;28;20052;-72
2021/08/10 05:51:13;;;;;;;5.72;3.67;;;;;;;16.59;76.52;96537.78;5070584;28;20049;-71
2021/08/10 05:53:40;;;;;;;3.90;3.30;;;;;;;16.63;76.27;96533.97;5070798;28;20517;-71
2021/08/10 05:56:06;;;;;;;7.18;3.95;;;;;;;16.70;76.48;96538.84;5070475;28;20068;-71
2021/08/10 05:58:33;;;;;;;5.55;2.92;;;;;;;16.74;76.60;96539.78;5070899;28;20655;-71
2021/08/10 06:00:59;;;;;;;4.20;2.85;;;;;;;16.80;76.82;96549.34;5071034;28;20045;-72
2021/08/10 06:03:26;;;;;;;7.43;3.60;;;;;;;16.85;76.63;96546.34;5070497;28;20055;-71
2021/08/10 06:05:54;;;;;;;8.95;3.55;;;;;;;16.89;76.86;96552.75;5070358;28;20044;-71
2021/08/10 06:08:20;;;;;;;11.32;3.90;;;;;;;16.95;75.68;96543.06;5069973;28;20052;-71
2021/08/10 06:10:47;;;;;;;15.02;4.20;;;;;;;17.01;76.31;96537.31;5070798;28;20052;-71
2021/08/10 06:13:13;;;;;;;6.15;3.38;;;;;;;17.08;75.24;96537.50;5069968;28;20063;-71
2021/08/10 06:15:40;;;;;;;5.28;3.20;;;;;;;17.15;74.89;96534.91;5070881;28;20052;-71
2021/08/10 06:18:06;;;;;;;7.85;3.30;;;;;;;17.20;75.05;96532.69;5070189;28;20045;-71
2021/08/10 06:20:33;;;;;;;10.88;3.58;;;;;;;17.25;74.52;96537.13;5070666;28;20518;-71
2021/08/10 06:23:01;;;;;;;9.77;3.60;;;;;;;17.29;74.79;96532.50;5070523;28;20054;-71
2021/08/10 06:25:28;;;;;;;9.48;3.10;;;;;;;17.39;74.97;96537.47;5070530;28;20043;-71
2021/08/10 06:27:54;;;;;;;11.10;3.58;;;;;;;17.46;74.90;96537.63;5070604;28;20503;-71
2021/08/10 06:30:21;;;;;;;5.72;2.88;;;;;;;17.52;74.19;96535.38;5069942;28;20130;-71
2021/08/10 06:32:47;;;;;;;7.38;2.97;;;;;;;17.59;74.15;96538.31;5070622;28;20051;-71
2021/08/10 06:35:14;;;;;;;8.02;3.45;;;;;;;17.72;73.92;96539.00;5069753;28;20048;-71
2021/08/10 06:37:40;;;;;;;4.97;2.97;;;;;;;17.80;73.65;96535.28;5070389;28;20045;-71
2021/08/10 06:40:09;;;;;;;5.50;3.22;;;;;;;17.95;73.93;96541.88;5070203;28;20546;-71
2021/08/10 06:42:36;;;;;;;5.90;3.13;;;;;;;18.02;73.44;96542.03;5070348;28;20049;-71
2021/08/10 06:45:03;;;;;;;4.60;3.15;;;;;;;18.11;73.50;96550.06;5068027;28;20036;-71
2021/08/10 06:47:29;;;;;;;5.47;3.20;;;;;;;18.15;73.24;96539.94;5069749;28;20044;-71
2021/08/10 06:49:55;;;;;;;4.63;3.10;;;;;;;18.21;72.57;96544.78;5070457;28;20051;-71
2021/08/10 06:52:22;;;;;;;4.20;2.97;;;;;;;18.31;72.82;96543.41;5069552;28;20056;-71
2021/08/10 06:54:48;;;;;;;4.35;3.00;;;;;;;18.43;71.93;96542.47;5070478;28;20651;-71
2021/08/10 06:57:16;;;;;;;6.05;3.17;;;;;;;18.56;72.09;96548.63;5069685;28;20434;-71
2021/08/10 06:59:43;;;;;;;4.60;3.03;;;;;;;18.66;71.39;96548.03;5069822;28;20068;-71
2021/08/10 07:02:10;;;;;;;8.90;3.10;;;;;;;18.72;71.09;96560.38;5069568;28;20073;-71
2021/08/10 07:04:36;;;;;;;3.85;2.70;;;;;;;18.80;71.81;96556.59;5069506;28;20056;-70
2021/08/10 07:07:03;;;;;;;5.80;3.85;;;;;;;18.86;71.97;96552.38;5069361;28;20071;-71
2021/08/10 07:09:30;;;;;;;5.00;2.53;;;;;;;19.03;72.20;96546.34;5070039;28;20041;-71
2021/08/10 07:11:56;;;;;;;6.35;2.78;;;;;;;19.13;70.39;96544.16;5069617;28;20049;-71
2021/08/10 07:14:25;;;;;;;7.45;3.00;;;;;;;19.20;69.38;96535.97;5069815;28;20119;-71
2021/08/10 07:16:52;;;;;;;6.15;2.85;;;;;;;19.33;69.72;96542.13;5070296;28;20053;-71
2021/08/10 07:19:18;;;;;;;6.68;2.70;;;;;;;19.39;69.01;96541.44;5069778;28;20055;-71
2021/08/10 07:21:45;;;;;;;8.65;2.70;;;;;;;19.47;70.41;96540.38;5069951;28;20040;-71
2021/08/10 07:24:11;;;;;;;5.07;3.15;;;;;;;19.59;68.94;96546.88;5069499;28;20052;-71
2021/08/10 07:26:38;;;;;;;8.52;3.17;;;;;;;19.71;69.41;96538.38;5073862;28;20059;-71
2021/08/10 07:29:04;;;;;;;5.72;2.60;;;;;;;19.79;66.70;96531.81;5073268;28;20633;-71
2021/08/10 07:31:32;;;;;;;5.90;2.70;;;;;;;19.86;67.29;96537.41;5073748;28;20064;-71
2021/08/10 07:33:59;;;;;;;8.80;2.90;;;;;;;19.97;65.86;96538.34;5072972;28;20059;-71
2021/08/10 07:36:25;;;;;;;4.97;2.63;;;;;;;20.09;66.70;96529.03;5072432;28;20037;-71
2021/08/10 07:38:52;;;;;;;3.60;2.50;;;;;;;20.23;65.81;96531.19;5072392;28;20050;-71
2021/08/10 07:41:18;;;;;;;6.07;2.63;;;;;;;20.35;65.80;96530.91;5073169;28;20047;-71
2021/08/10 07:43:44;;;;;;;7.93;2.28;;;;;;;20.46;62.23;96540.16;5072946;28;20048;-70
2021/08/10 07:46:11;;;;;;;5.82;2.50;;;;;;;20.53;64.16;96543.03;5068726;28;20048;-71
2021/08/10 07:48:39;;;;;;;5.75;2.88;;;;;;;20.70;66.30;96544.38;5073250;28;20040;-71
2021/08/10 07:51:05;;;;;;;5.65;2.30;;;;;;;20.88;65.12;96536.28;5070246;28;20059;-70
2021/08/10 07:53:32;;;;;;;9.15;2.78;;;;;;;21.14;63.89;96540.06;5070823;28;20040;-71
2021/08/10 07:55:58;;;;;;;9.68;2.60;;;;;;;21.60;63.18;96544.00;5070489;28;20044;-71
2021/08/10 07:58:25;;;;;;;4.15;2.30;;;;;;;22.53;58.97;96543.75;5070594;28;20519;-71
2021/08/10 08:00:51;;;;;;;3.25;2.08;;;;;;;23.59;49.70;96542.31;5071356;28;20048;-70
2021/08/10 08:03:18;;;;;;;2.47;1.90;;;;;;;24.55;54.31;96538.56;5070771;28;20044;-71
2021/08/10 08:05:46;;;;;;;3.78;2.10;;;;;;;25.61;51.11;96545.41;5071680;28;20045;-71
2021/08/10 08:08:12;;;;;;;5.22;2.33;;;;;;;26.58;47.66;96545.22;5072506;28;20072;-71
2021/08/10 08:10:39;;;;;;;3.88;2.10;;;;;;;27.37;39.14;96539.34;5072968;28;20052;-72
2021/08/10 08:13:05;;;;;;;4.10;1.95;;;;;;;28.06;38.99;96534.16;5072384;28;20040;-71
2021/08/10 08:15:33;;;;;;;3.25;1.85;;;;;;;28.77;39.92;96527.16;5073146;28;20041;-71
2021/08/10 08:17:59;;;;;;;4.45;1.70;;;;;;;29.56;35.94;96525.38;5072877;28;20102;-71
2021/08/10 08:20:26;;;;;;;3.25;1.75;;;;;;;30.14;36.36;96528.28;5072002;28;20067;-71
2021/08/10 08:22:54;;;;;;;4.25;1.70;;;;;;;30.61;34.07;96533.38;5072499;28;20414;-71
2021/08/10 08:25:20;;;;;;;3.22;1.77;;;;;;;30.95;32.11;96532.78;5072319;28;20407;-71
2021/08/10 08:27:47;;;;;;;2.97;1.95;;;;;;;31.22;33.78;96529.56;5072564;28;20052;-71
2021/08/10 08:30:14;;;;;;;6.50;1.83;;;;;;;31.54;35.50;96533.38;5072110;28;20041;-71
2021/08/10 08:32:41;;;;;;;3.58;1.70;;;;;;;31.84;35.59;96546.84;5072581;28;20052;-71
2021/08/10 08:35:08;;;;;;;3.63;1.80;;;;;;;32.16;33.13;96533.69;5071439;28;20055;-73
2021/08/10 08:37:36;;;;;;;2.92;1.77;;;;;;;32.33;33.16;96537.91;5072446;28;20071;-71
2021/08/10 08:40:05;;;;;;;3.83;1.92;;;;;;;32.51;32.83;96536.47;5071920;28;20422;-73
2021/08/10 08:42:32;;;;;;;4.35;1.92;;;;;;;32.58;30.94;96541.88;5072214;28;20044;-73
2021/08/10 08:44:58;;;;;;;4.22;1.60;;;;;;;32.72;30.96;96535.69;5054622;28;20055;-72
2021/08/10 08:47:25;;;;;;;3.20;1.70;;;;;;;32.77;30.57;96537.13;5053981;28;20051;-72
2021/08/10 08:49:55;;;;;;;4.35;1.70;;;;;;;32.84;29.42;96534.84;5072251;28;20044;-73
2021/08/10 08:52:22;;;;;;;2.25;1.55;;;;;;;33.12;29.96;96523.72;5071569;28;20060;-73
2021/08/10 08:54:49;;;;;;;5.20;2.28;;;;;;;33.34;29.46;96532.09;5072205;28;20064;-72
2021/08/10 08:57:17;;;;;;;4.93;1.70;;;;;;;33.52;29.17;96528.56;5071483;28;20056;-73
2021/08/10 08:59:44;;;;;;;3.15;1.67;;;;;;;33.24;25.80;96525.63;5072039;28;20047;-72
2021/08/10 09:02:14;;;;;;;3.85;1.92;;;;;;;33.08;27.92;96525.88;5071537;28;20518;-73
2021/08/10 09:04:40;;;;;;;3.22;1.70;;;;;;;33.26;30.26;96533.66;5054149;28;20044;-73
2021/08/10 09:07:07;;;;;;;3.50;1.75;;;;;;;33.26;27.17;96528.00;5070719;28;20068;-73
2021/08/10 09:09:34;;;;;;;3.38;1.75;;;;;;;33.27;28.79;96524.72;5071611;28;20041;-72
2021/08/10 09:12:09;;;;;;;3.13;1.58;;;;;;;33.11;26.53;96524.97;5071669;28;20503;-72
2021/08/10 09:14:48;;;;;;;5.07;1.75;;;;;;;33.17;31.54;96528.75;5071531;28;20036;-72
2021/08/10 09:17:17;;;;;;;3.47;1.80;;;;;;;33.49;28.99;96531.09;5071120;28;20070;-72
2021/08/10 09:19:46;;;;;;;4.10;1.92;;;;;;;33.60;28.05;96524.22;5071297;28;20036;-71
2021/08/10 09:22:24;;;;;;;3.45;2.00;;;;;;;33.56;30.08;96515.09;5070895;28;20408;-72
2021/08/10 09:24:53;;;;;;;4.25;1.75;;;;;;;33.60;31.32;96518.56;5071597;28;20063;-72
2021/08/10 09:27:25;;;;;;;2.97;1.70;;;;;;;33.91;28.70;96516.44;5070992;28;20044;-72
2021/08/10 09:29:53;;;;;;;3.30;2.05;;;;;;;33.62;27.32;96511.22;5071332;28;20049;-72
2021/08/10 09:32:20;;;;;;;2.70;1.73;;;;;;;33.24;25.27;96517.16;5071024;28;20049;-71
2021/08/10 09:34:46;;;;;;;3.30;1.73;;;;;;;32.81;26.35;96516.00;5069416;28;20040;-71
2021/08/10 09:37:16;;;;;;;4.18;2.00;;;;;;;32.69;27.21;96514.84;5069882;28;20055;-71
2021/08/10 09:39:43;;;;;;;5.38;2.25;;;;;;;32.49;29.53;96505.94;5071271;28;20045;-70
2021/08/10 09:42:12;;;;;;;3.70;1.70;;;;;;;32.41;30.03;96505.41;5070785;28;20052;-73
2021/08/10 09:44:40;;;;;;;3.65;1.73;;;;;;;32.29;33.48;96492.16;5071272;28;20047;-73
2021/08/10 09:47:08;;;;;;;4.05;2.30;;;;;;;31.84;28.67;96501.00;5069977;28;20079;-72
2021/08/10 09:49:45;;;;;;;4.82;2.10;;;;;;;31.16;28.21;96506.00;5070985;28;20052;-71
2021/08/10 09:52:24;;;;;;;3.33;2.00;;;;;;;30.05;29.63;96494.41;5070377;28;20059;-72
2021/08/10 09:54:51;;;;;;;4.10;2.00;;;;;;;29.53;33.48;96498.16;5071017;28;20047;-72
2021/08/10 09:57:17;;;;;;;4.00;1.88;;;;;;;28.72;32.45;96502.44;5070560;28;20074;-72
2021/08/10 09:59:44;;;;;;;3.88;2.00;;;;;;;28.22;33.74;96495.03;5070817;28;20048;-72
2021/08/10 10:02:19;;;;;;;3.33;1.73;;;;;;;28.08;38.80;96493.31;5070562;28;20045;-72
2021/08/10 10:04:51;;;;;;;2.97;1.92;;;;;;;28.01;40.43;96489.88;5070731;28;20053;-72
2021/08/10 10:07:19;;;;;;;3.75;2.00;;;;;;;27.98;38.84;96496.31;5070016;28;20055;-72
2021/08/10 10:09:46;;;;;;;3.10;2.00;;;;;;;28.05;38.75;96490.59;5070660;28;20048;-72
2021/08/10 10:12:14;;;;;;;4.68;2.45;;;;;;;28.17;39.94;96483.56;5070174;28;20048;-72
2021/08/10 10:14:41;;;;;;;5.50;2.40;;;;;;;28.25;43.41;96474.59;5070951;28;20055;-72
2021/08/10 10:17:09;;;;;;;5.47;2.25;;;;;;;28.28;39.18;96479.31;5070165;28;20048;-73
2021/08/10 10:19:39;;;;;;;7.25;2.20;;;;;;;28.16;40.58;96477.16;5069660;28;20445;-72
2021/08/10 10:22:14;;;;;;;6.38;2.60;;;;;;;28.25;41.31;96477.41;5068952;28;20048;-72
2021/08/10 10:24:48;;;;;;;6.93;2.00;;;;;;;28.33;38.63;96466.84;5070588;28;20049;-72
2021/08/10 10:27:16;;;;;;;3.35;2.13;;;;;;;28.30;35.20;96471.28;5069605;28;20049;-72
2021/08/10 10:29:43;;;;;;;4.20;2.33;;;;;;;28.02;34.00;96466.25;5059485;28;20048;-71
2021/08/10 10:32:10;;;;;;;5.20;2.45;;;;;;;28.06;37.29;96466.97;5069547;28;20048;-72
2021/08/10 10:34:38;;;;;;;2.92;1.85;;;;;;;28.05;36.54;96465.41;5069906;28;20045;-72
2021/08/10 10:37:06;;;;;;;4.22;1.95;;;;;;;27.94;35.02;96476.03;5069725;28;20040;-72
2021/08/10 10:39:35;;;;;;;3.30;2.00;;;;;;;27.76;36.53;96471.53;5070429;28;20056;-71
2021/08/10 10:42:06;;;;;;;4.78;2.10;;;;;;;27.71;37.41;96474.03;5070554;28;20075;-72
2021/08/10 10:44:37;;;;;;;4.20;2.33;;;;;;;27.87;38.45;96459.34;5070240;28;20052;-72
2021/08/10 10:47:37;;;;;;;4.55;2.38;;;;;;;27.99;37.99;96461.53;5069474;28;20041;-71
2021/08/10 10:50:18;;;;;;;4.93;2.00;;;;;;;28.13;39.59;96454.84;5050035;28;20051;-72
2021/08/10 10:53:03;;;;;;;4.15;2.22;;;;;;;27.91;37.89;96457.28;5066896;28;20091;-73
2021/08/10 10:55:35;;;;;;;3.72;2.20;;;;;;;27.82;37.38;96458.66;5070119;28;20045;-70
2021/08/10 10:58:22;;;;;;;3.38;2.25;;;;;;;27.84;38.34;96455.41;5069727;28;20052;-73
2021/08/10 11:01:17;;;;;;;3.75;2.10;;;;;;;27.94;38.16;96448.03;5066662;28;20052;-71
2021/08/10 11:04:12;;;;;;;3.85;2.10;;;;;;;28.01;39.13;96447.88;5064418;28;20049;-71
2021/08/10 11:06:45;;;;;;;4.03;2.22;;;;;;;28.03;37.40;96445.44;5070047;28;20131;-71
2021/08/10 11:09:59;;;;;;;3.72;2.33;;;;;;;28.02;38.70;96446.66;5069881;28;20045;-72
2021/08/10 11:12:42;;;;;;;3.67;2.30;;;;;;;28.00;38.59;96447.09;5070999;28;20040;-71
2021/08/10 11:15:09;;;;;;;3.65;2.00;;;;;;;28.14;41.15;96446.03;5068317;28;20053;-71
2021/08/10 11:17:36;;;;;;;3.88;1.92;;;;;;;28.11;36.48;96452.47;5071668;28;20044;-71
2021/08/10 11:20:23;;;;;;;4.75;2.47;;;;;;;28.08;39.18;96442.13;5073252;28;20045;-71
2021/08/10 11:22:51;;;;;;;5.20;2.20;;;;;;;28.11;36.99;96452.47;5073574;28;20488;-71
2021/08/10 11:25:23;;;;;;;2.75;2.13;;;;;;;28.01;36.67;96445.88;5072190;28;20399;-71
2021/08/10 11:27:50;;;;;;;4.82;2.45;;;;;;;27.82;37.56;96446.66;5071223;28;20052;-71
2021/08/10 11:30:44;;;;;;;4.53;2.50;;;;;;;27.82;37.38;96439.06;5069847;28;20494;-71
2021/08/10 11:33:40;;;;;;;3.00;2.10;;;;;;;27.91;38.30;96446.09;5069741;28;20044;-71
2021/08/10 11:36:22;;;;;;;4.38;2.53;;;;;;;28.06;36.54;96436.97;5070600;28;20487;-71
2021/08/10 11:39:08;;;;;;;3.45;2.10;;;;;;;28.12;37.44;96436.47;5071053;28;20506;-71
2021/08/10 11:41:36;;;;;;;3.72;2.00;;;;;;;28.04;37.36;96435.84;5069198;28;20051;-71